Terminal Aerodrome Forecast
Issued by NWS Shreveport, LA

Home | Current Version | Previous Version | Text Only | Print | Product List | Glossary On
Versions: 1 2 3 4 5 6 7 8 9 10 11 12 13 14 15 16 17 18
000
FTUS44 KSHV 110608 AAA
TAFTYR
TAF AMD
KTYR 110608Z 1106/1206 17012KT P6SM OVC035
     FM110900 17013KT P6SM SCT015 OVC025
     FM111200 17014G20KT P6SM OVC015
     FM111500 18015G24KT P6SM VCSH BKN009 OVC015
     FM120000 19012KT P6SM VCSH OVC007=

USA.gov is the U.S. government's official web portal to all federal, state and local government web resources and services.